Startpagina
METAR-TAF:

METAR-TAF

Vliegvelden :

Koror, Babelthuap Island, Palau

Roman Tmetuchl International Airport

breedte: 07-22N, lengte: 134-32E, hoogte: 54 m

Actueel weer

Dit bericht is 22 minuten geleden gemaakt, om 17:50 UTC
Wind 6 kt uit het zuidwesten
Temperatuur 27°C
Vochtigheid 84%
Druk 1006 hPa
Zicht: 22.5 km
Verspreide wolken op 1600 ft
Gebroken wolken op 29000 ft

METAR: PTRO 121750Z 22006KT 14SM SCT016 BKN290 27/24 A2972

Tijdstip: 03:12 (18:12 UTC)

Verwachting

Dit bericht is 52 minuten geleden gemaakt, om 17:20 UTC
Verwachting geldig van 12 om 18 UTC tot 13 om 18 UTC
Wind 11 kt uit het westzuidwesten
Zicht: 10 km
Verspreide wolken op 1500 ft
Gebroken wolken op 12000 ft
buien in de omgeving
Tijdelijke
van 12 om 20 UTC tot 12 om 24 UTC
Wind 15 kt uit het westzuidwesten met uitschieters tot 25 kt
Zicht: 4.8 km
Gebroken wolken op 1500 ft
Geheel bewolkt op 4000 ft
zware regenbuien

TAF: PTRO 121720Z 1218/1318 25011KT P6SM VCSH SCT015 BKN120 TEMPO 1220/1224 25015G25KT 3SM +SHRA BKN015 OVC040

Waarnemingen en weersverwachtingen van meer dan 4000 vliegvelden (METAR en TAF).

De beschikbare stations zijn de gele en rode punten op de kaart.

Ga met uw muis naar het station om de naam te zien.

Klik dan om waarnemingen en weersverwachtingen te zien.

kaart wijzigen: klik op de groene knoppen met een zwart kruis om in te zoomen, op de groene knop met een streepje om uit te zoomen of op de groene pijlen voor aangrenzende kaarten.


METAR-TAF: